KEST/EST METAR and TAF weather

Enter ICAO airport designator
Station Type Date Time Source
KEST METAR 2021/01/16 02:52 UTC NOAA

KEST 160252Z AUTO 33022G32KT 3SM UP BR OVC008 M05/M06 A2981 RMK AO2 PK WND 32034/0210 UPB00 SLP111 P0000 60000 T10501056 53006


Station Type Date Time Source
KEST Decoded METAR 2021/01/16 02:52 UTC NOAA

ESTHERVILLE MUNICIPAL AIRPORT , IA, United States (KEST) 43-24N 94-45W 401M
Jan 15, 2021 - 09:52 PM EST / 2021.01.16 0252 UTC
Wind: from the NNW (330 degrees) at 25 MPH (22 KT) gusting to 37 MPH (32 KT):0
Visibility: 3 mile(s):0
Sky conditions: overcast
Weather: precipitation; mist
Precipitation last hour: A trace
Temperature: 23.0 F (-5.0 C)
Windchill: 6 F (-14 C):1
Dew Point: 21.9 F (-5.6 C)
Relative Humidity: 95%
Pressure (altimeter): 29.81 in. Hg (1009 hPa)
Pressure tendency: 0.02 inches (0.6 hPa) higher than three hours ago
ob: KEST 160252Z AUTO 33022G32KT 3SM UP BR OVC008 M05/M06 A2981 RMK AO2 PK WND 32034/0210 UPB00 SLP111 P0000 60000 T10501056 53006
cycle: 3

Station Type Date Time Source
KEST TAF UTC NOAA

Error!

Example: see airport list